createdAt,value
2023-04-02T00:04:36.789Z,0
2023-04-02T00:10:56.741Z,0
2023-04-02T00:17:19.897Z,0
2023-04-02T00:23:39.749Z,0
2023-04-02T00:30:02.754Z,0
2023-04-02T00:36:22.794Z,0
2023-04-02T00:42:45.780Z,0
2023-04-02T00:49:05.764Z,0
2023-04-02T00:55:28.817Z,0
2023-04-02T01:01:48.795Z,0
2023-04-02T01:08:11.839Z,0
2023-04-02T01:14:31.787Z,0
2023-04-02T01:20:54.764Z,0
2023-04-02T01:27:14.741Z,0
2023-04-02T01:33:37.809Z,0
2023-04-02T01:39:57.771Z,0
2023-04-02T01:46:20.835Z,0
2023-04-02T01:52:40.775Z,0
2023-04-02T01:59:03.726Z,0
2023-04-02T02:05:23.749Z,0
2023-04-02T02:11:46.782Z,0
2023-04-02T02:18:06.772Z,0
2023-04-02T02:24:29.930Z,0
2023-04-02T02:30:49.805Z,0
2023-04-02T02:37:12.751Z,0
2023-04-02T02:43:32.746Z,0
2023-04-02T02:49:55.890Z,0
2023-04-02T02:56:15.767Z,0
2023-04-02T03:02:38.896Z,0
2023-04-02T03:08:58.824Z,0
2023-04-02T03:15:21.801Z,0
2023-04-02T03:21:41.769Z,0
2023-04-02T03:28:04.784Z,0
2023-04-02T03:43:36.720Z,0
2023-04-02T03:49:56.714Z,0
2023-04-02T03:56:19.806Z,0
2023-04-02T04:02:39.762Z,0
2023-04-02T04:09:02.730Z,0
2023-04-02T04:15:22.847Z,0
2023-04-02T04:21:45.807Z,0
2023-04-02T04:28:05.883Z,0
2023-04-02T04:34:28.770Z,0
2023-04-02T04:40:48.803Z,0
2023-04-02T04:47:11.775Z,0
2023-04-02T04:53:31.778Z,0
2023-04-02T04:59:54.756Z,0
2023-04-02T05:06:14.790Z,0
2023-04-02T05:12:37.736Z,0
2023-04-02T05:18:57.821Z,0
2023-04-02T05:25:20.735Z,0
2023-04-02T05:31:40.859Z,0
2023-04-02T05:38:03.832Z,0
2023-04-02T05:44:23.759Z,0
2023-04-02T05:50:46.769Z,0
2023-04-02T05:57:06.822Z,0
2023-04-02T06:03:29.758Z,0
2023-04-02T06:09:49.800Z,0
2023-04-02T06:16:12.885Z,5.62
2023-04-02T06:22:32.855Z,5.62
2023-04-02T06:28:55.760Z,5.62
2023-04-02T06:35:15.790Z,5.62
2023-04-02T06:41:38.778Z,5.62
2023-04-02T06:47:58.890Z,5.62
2023-04-02T06:54:21.816Z,11.25
2023-04-02T07:00:41.820Z,11.25
2023-04-02T07:07:04.740Z,16.88
2023-04-02T07:13:24.857Z,11.25
2023-04-02T07:19:47.748Z,22.5
2023-04-02T07:26:07.762Z,28.12
2023-04-02T07:32:30.903Z,39.38
2023-04-02T07:38:50.731Z,39.38
2023-04-02T07:45:13.804Z,33.75
2023-04-02T07:51:33.786Z,28.12
2023-04-02T07:57:56.809Z,28.12
2023-04-02T08:04:16.914Z,33.75
2023-04-02T08:10:39.819Z,39.38
2023-04-02T08:16:59.779Z,33.75
2023-04-02T08:23:22.762Z,45
2023-04-02T08:29:42.830Z,45
2023-04-02T08:36:05.798Z,56.25
2023-04-02T08:42:25.763Z,61.88
2023-04-02T08:58:17.707Z,45
2023-04-02T09:04:37.773Z,33.75
2023-04-02T09:11:00.731Z,39.38
2023-04-02T09:17:20.887Z,39.38
2023-04-02T09:23:43.822Z,45
2023-04-02T09:30:03.816Z,39.38
2023-04-02T09:36:26.887Z,33.75
2023-04-02T09:42:47.003Z,33.75
2023-04-02T09:49:09.784Z,50.62
2023-04-02T09:55:29.840Z,39.38
2023-04-02T10:01:52.799Z,39.38
2023-04-02T10:08:12.785Z,33.75
2023-04-02T10:14:35.840Z,28.12
2023-04-02T10:20:55.801Z,33.75
2023-04-02T10:27:18.829Z,33.75
2023-04-02T10:33:38.830Z,33.75
2023-04-02T10:40:01.814Z,33.75
2023-04-02T10:46:23.713Z,39.38
2023-04-02T10:52:44.977Z,39.38
2023-04-02T10:59:04.749Z,50.62
2023-04-02T11:05:27.809Z,61.88
2023-04-02T11:11:47.799Z,61.88
2023-04-02T11:18:10.779Z,73.12
2023-04-02T11:24:30.822Z,73.12
2023-04-02T11:30:53.826Z,67.5
2023-04-02T11:37:13.800Z,50.62
2023-04-02T11:43:36.762Z,45
2023-04-02T11:49:56.804Z,45
2023-04-02T11:56:19.831Z,45
2023-04-02T12:02:39.793Z,50.62
2023-04-02T12:09:02.786Z,61.88
2023-04-02T12:15:22.758Z,56.25
2023-04-02T12:21:45.737Z,50.62
2023-04-02T12:28:05.845Z,56.25
2023-04-02T12:34:28.762Z,61.88
2023-04-02T12:40:48.800Z,78.75
2023-04-02T12:47:11.763Z,90
2023-04-02T12:53:31.767Z,90
2023-04-02T12:59:54.847Z,84.38
2023-04-02T13:06:14.785Z,90
2023-04-02T13:12:37.809Z,78.75
2023-04-02T13:18:57.746Z,67.5
2023-04-02T13:25:20.783Z,67.5
2023-04-02T13:31:40.795Z,56.25
2023-04-02T13:38:03.807Z,56.25
2023-04-02T13:44:23.822Z,61.88
2023-04-02T13:50:46.863Z,56.25
2023-04-02T13:57:06.785Z,56.25
2023-04-02T14:03:29.808Z,39.38
2023-04-02T14:26:53.722Z,33.75
2023-04-02T14:33:14.027Z,33.75
2023-04-02T14:39:36.817Z,39.38
2023-04-02T14:45:56.811Z,39.38
2023-04-02T14:52:19.782Z,39.38
2023-04-02T14:58:39.821Z,33.75
2023-04-02T15:05:02.817Z,33.75
2023-04-02T15:11:22.778Z,28.12
2023-04-02T15:17:45.775Z,28.12
2023-04-02T15:24:06.080Z,33.75
2023-04-02T15:30:28.775Z,33.75
2023-04-02T15:36:48.783Z,33.75
2023-04-02T15:43:11.831Z,33.75
2023-04-02T15:49:31.769Z,33.75
2023-04-02T15:55:54.738Z,33.75
2023-04-02T16:02:14.858Z,33.75
2023-04-02T16:08:37.765Z,33.75
2023-04-02T16:14:57.816Z,28.12
2023-04-02T16:21:20.781Z,28.12
2023-04-02T16:27:40.814Z,28.12
2023-04-02T16:34:03.837Z,28.12
2023-04-02T16:40:23.771Z,22.5
2023-04-02T16:46:46.874Z,22.5
2023-04-02T16:53:06.821Z,16.88
2023-04-02T16:59:29.787Z,16.88
2023-04-02T17:05:49.846Z,11.25
2023-04-02T17:12:12.796Z,11.25
2023-04-02T17:18:32.902Z,5.62
2023-04-02T17:24:55.815Z,5.62
2023-04-02T17:31:15.801Z,5.62
2023-04-02T17:37:38.799Z,0
2023-04-02T17:43:58.769Z,0
2023-04-02T17:50:21.796Z,0
2023-04-02T17:56:41.858Z,0
2023-04-02T18:03:04.824Z,0
2023-04-02T18:09:24.825Z,0
2023-04-02T18:15:47.801Z,0
2023-04-02T18:22:07.791Z,0
2023-04-02T18:28:30.798Z,0
2023-04-02T18:34:50.804Z,0
2023-04-02T18:41:13.811Z,0
2023-04-02T18:47:33.854Z,0
2023-04-02T18:53:56.893Z,0
2023-04-02T19:00:17.043Z,0
2023-04-02T19:06:39.748Z,0
2023-04-02T19:13:00.098Z,0
2023-04-02T19:19:22.800Z,0
2023-04-02T19:43:03.744Z,0
2023-04-02T19:49:23.755Z,0
2023-04-02T19:55:46.814Z,0
2023-04-02T20:02:10.516Z,0
2023-04-02T20:08:33.832Z,0
2023-04-02T20:14:53.811Z,0
2023-04-02T20:21:16.853Z,0
2023-04-02T20:27:36.817Z,0
2023-04-02T20:34:00.016Z,0
2023-04-02T20:40:19.786Z,0
2023-04-02T20:46:42.750Z,0
2023-04-02T20:53:02.738Z,0
2023-04-02T20:59:25.837Z,0
2023-04-02T21:05:45.800Z,0
2023-04-02T21:12:08.755Z,0
2023-04-02T21:18:28.858Z,0
2023-04-02T21:24:51.765Z,0
2023-04-02T21:31:11.909Z,0
2023-04-02T21:37:34.828Z,0
2023-04-02T21:43:54.768Z,0
2023-04-02T21:50:17.830Z,0
2023-04-02T21:56:37.800Z,0
2023-04-02T22:20:54.755Z,0
2023-04-02T22:27:14.762Z,0
2023-04-02T22:33:37.743Z,0
2023-04-02T22:39:57.797Z,0
2023-04-02T22:46:20.832Z,0
2023-04-02T22:52:40.749Z,0
2023-04-02T22:59:03.770Z,0
2023-04-02T23:05:23.893Z,0
2023-04-02T23:11:46.748Z,0
2023-04-02T23:18:06.871Z,0
2023-04-02T23:24:29.750Z,0
2023-04-02T23:30:49.787Z,0
2023-04-02T23:37:12.798Z,0
2023-04-02T23:43:32.803Z,0
2023-04-02T23:49:55.764Z,0
2023-04-02T23:56:15.823Z,0
